Codrington, Antigua and Barbuda
Current Conditions -  °F | °C
As of 12:00 AM on Sunday 26 Oct 2014 (Local Time) from TAPA Reporting Station
Scattered Clouds Scattered Clouds  
Wind Chill: 81°   Ceiling: Unl
Heat Index: 86°   Visibility: 6mi
Dew Point: 75°   Wind: 6mph
Humidity: 84%   Direction: 130°SE
Pressure: 29.91"   Gusts: NA
Location:  17.64°N, 61.82°W
Report Text: TAPA 260400Z 13005KT 9999 SCT018 27/24 Q1013 NOSIG
Loading
Personal Weather Stations






























Interactive Weather Map
Tropical Storm Tracking
New forecast layout! Learn more

10-Day Weather Forecast

Advertisements
Track Severe Weather on mobile